Time;durP1;ratioP1;P1;durP2;ratioP2;P2;SDS_P1;SDS_P2;PMS_P1;PMS_P2;Temp;Humidity;BMP_temperature;BMP_pressure;BME280_temperature;BME280_humidity;BME280_pressure;Samples;Min_cycle;Max_cycle;Signal;HPM_P1;HPM_P2
2022/02/05 00:00:30;;;;;;;13.70;5.47;;;3.80;84.30;;;;;;4916634;28;20644;-73
2022/02/05 00:05:36;;;;;;;12.90;4.97;;;3.80;84.20;;;;;;4923265;28;20130;-74
2022/02/05 00:20:00;;;;;;;14.43;5.72;;;3.80;84.20;;;;;;4924698;28;20036;-73
2022/02/05 00:38:38;;;;;;;12.40;5.18;;;3.70;84.10;;;;;;4921204;28;20043;-75
2022/02/05 00:41:19;;;;;;;14.52;5.40;;;3.70;84.20;;;;;;4921865;28;20071;-75
2022/02/05 00:43:53;;;;;;;12.65;5.18;;;3.80;84.10;;;;;;4925014;28;20087;-74
2022/02/05 00:46:21;;;;;;;11.73;5.03;;;3.70;83.80;;;;;;4922290;28;20043;-73
2022/02/05 00:48:48;;;;;;;13.45;5.53;;;3.80;83.90;;;;;;4936994;28;20060;-73
2022/02/05 00:51:20;;;;;;;10.57;5.65;;;3.80;83.80;;;;;;4920813;28;20031;-77
2022/02/05 00:53:57;;;;;;;15.45;5.85;;;3.70;84.00;;;;;;4922991;28;20043;-77
2022/02/05 00:56:36;;;;;;;17.90;6.80;;;3.70;84.00;;;;;;4923472;28;20451;-77
2022/02/05 00:59:02;;;;;;;14.55;5.07;;;3.60;84.10;;;;;;4922029;28;20031;-75
2022/02/05 01:01:28;;;;;;;14.07;5.22;;;3.60;84.30;;;;;;4923314;28;20086;-75
2022/02/05 01:03:54;;;;;;;12.38;5.72;;;3.50;84.40;;;;;;4918534;28;20048;-75
2022/02/05 01:06:20;;;;;;;19.25;6.20;;;3.50;84.60;;;;;;4922140;28;20042;-80
2022/02/05 01:08:46;;;;;;;12.05;5.85;;;3.40;84.80;;;;;;4921704;28;20032;-75
2022/02/05 01:11:12;;;;;;;13.05;5.72;;;3.40;85.00;;;;;;4923158;28;20036;-77
2022/02/05 01:13:38;;;;;;;12.52;6.07;;;3.30;85.10;;;;;;4922433;28;20130;-76
2022/02/05 01:16:17;;;;;;;14.15;6.18;;;3.40;85.20;;;;;;4935470;28;20036;-74
2022/02/05 01:18:44;;;;;;;13.40;5.93;;;3.40;85.20;;;;;;4933355;28;20433;-75
2022/02/05 01:23:53;;;;;;;;;;;3.40;84.90;;;;;;4922679;28;20083;-75
2022/02/05 01:26:42;;;;;;;13.45;5.55;;;3.60;84.90;;;;;;4921245;28;20358;-74
2022/02/05 01:29:26;;;;;;;15.32;6.45;;;3.50;84.70;;;;;;4921467;28;20570;-76
2022/02/05 01:31:56;;;;;;;16.02;6.95;;;3.50;84.80;;;;;;4920772;28;20040;-76
2022/02/05 01:50:40;;;;;;;15.43;6.47;;;3.40;85.40;;;;;;4916250;28;20083;-73
2022/02/05 01:53:50;;;;;;;13.10;6.18;;;3.40;85.40;;;;;;4927391;28;20040;-74
2022/02/05 01:56:19;;;;;;;14.85;6.18;;;3.50;85.20;;;;;;4921396;28;20039;-74
2022/02/05 02:09:59;;;;;;;17.58;5.07;;;3.50;85.50;;;;;;4916427;28;20118;-73
2022/02/05 02:12:35;;;;;;;15.57;5.65;;;3.60;85.40;;;;;;4911563;28;20529;-72
2022/02/05 02:15:07;;;;;;;12.25;6.13;;;3.60;84.90;;;;;;4919342;28;20518;-71
2022/02/05 02:22:59;;;;;;;15.27;5.35;;;3.60;85.10;;;;;;4916899;28;20586;-73
2022/02/05 02:28:16;;;;;;;16.20;5.13;;;3.50;85.00;;;;;;4918787;28;20043;-75
2022/02/05 02:30:53;;;;;;;13.35;5.10;;;3.50;85.00;;;;;;4924497;28;20040;-74
2022/02/05 02:33:31;;;;;;;15.43;5.95;;;3.40;85.10;;;;;;4918512;28;20066;-77
2022/02/05 02:35:57;;;;;;;13.13;5.82;;;3.40;85.50;;;;;;4920628;28;20667;-74
2022/02/05 02:38:32;;;;;;;19.00;5.57;;;3.40;85.50;;;;;;4919429;28;20044;-76
2022/02/05 02:41:03;;;;;;;16.95;6.00;;;3.40;85.70;;;;;;4933111;28;20527;-77
2022/02/05 02:43:31;;;;;;;11.32;5.05;;;3.40;85.70;;;;;;4923652;28;20070;-76
2022/02/05 02:45:57;;;;;;;16.20;5.00;;;3.40;85.70;;;;;;4924990;28;20035;-76
2022/02/05 02:48:23;;;;;;;16.95;5.40;;;3.50;85.70;;;;;;4924348;28;20058;-76
2022/02/05 02:56:32;;;;;;;15.73;5.85;;;3.50;85.80;;;;;;4919622;28;20291;-75
2022/02/05 02:59:05;;;;;;;13.75;5.35;;;3.50;85.70;;;;;;4922568;28;20569;-73
2022/02/05 03:01:34;;;;;;;16.70;6.32;;;3.50;85.80;;;;;;4924536;28;20039;-75
2022/02/05 03:04:00;;;;;;;18.63;5.88;;;3.50;85.90;;;;;;4923889;28;20566;-76
2022/02/05 03:06:25;;;;;;;17.90;5.40;;;3.50;85.80;;;;;;4953613;28;20043;-73
2022/02/05 03:08:51;;;;;;;17.17;5.32;;;3.50;85.70;;;;;;4920401;28;20032;-75
2022/02/05 03:11:19;;;;;;;13.98;5.70;;;3.50;85.80;;;;;;4919380;28;20657;-73
2022/02/05 03:13:46;;;;;;;16.25;5.03;;;3.50;86.00;;;;;;4937656;28;20118;-73
2022/02/05 03:16:22;;;;;;;14.80;5.05;;;3.40;86.00;;;;;;4924346;28;20062;-75
2022/02/05 03:21:22;;;;;;;19.08;5.63;;;3.40;86.00;;;;;;4928054;28;20028;-75
2022/02/05 03:23:48;;;;;;;14.13;4.80;;;3.50;86.10;;;;;;4929151;28;20051;-79
2022/02/05 03:26:14;;;;;;;15.13;4.95;;;3.50;86.10;;;;;;4932203;28;20048;-74
2022/02/05 03:28:39;;;;;;;13.90;5.53;;;3.50;86.30;;;;;;4921610;28;20131;-75
2022/02/05 03:31:05;;;;;;;15.90;5.45;;;3.50;86.30;;;;;;4923669;28;20036;-76
2022/02/05 03:33:31;;;;;;;15.88;5.47;;;3.50;86.30;;;;;;4923922;28;20559;-73
2022/02/05 03:35:57;;;;;;;14.85;5.43;;;3.50;86.30;;;;;;4923933;28;20058;-72
2022/02/05 03:38:23;;;;;;;17.30;5.80;;;3.50;86.50;;;;;;4927660;28;20544;-72
2022/02/05 03:40:49;;;;;;;15.30;5.43;;;3.50;86.30;;;;;;4922500;28;20040;-75
2022/02/05 03:43:14;;;;;;;17.88;6.10;;;3.50;86.20;;;;;;4922296;28;20044;-75
2022/02/05 03:45:40;;;;;;;15.20;5.55;;;3.50;86.30;;;;;;4924379;28;20044;-76
2022/02/05 03:48:06;;;;;;;17.25;5.38;;;3.50;86.30;;;;;;4923085;28;20039;-76
2022/02/05 03:50:33;;;;;;;15.27;5.40;;;3.40;86.50;;;;;;4923475;28;20052;-80
2022/02/05 03:52:59;;;;;;;12.85;5.10;;;3.40;86.60;;;;;;4922285;28;20938;-75
2022/02/05 03:55:25;;;;;;;18.17;5.10;;;3.40;86.70;;;;;;4922815;28;20126;-74
2022/02/05 03:57:51;;;;;;;13.20;5.30;;;3.40;86.80;;;;;;4923640;28;20048;-74
2022/02/05 04:00:17;;;;;;;17.23;5.60;;;3.30;86.90;;;;;;4921299;28;20044;-75
2022/02/05 04:02:43;;;;;;;12.00;5.00;;;3.40;87.00;;;;;;4922270;28;20127;-78
2022/02/05 04:05:09;;;;;;;12.55;4.68;;;3.40;87.00;;;;;;4922351;28;20052;-73
2022/02/05 04:07:39;;;;;;;14.65;5.35;;;3.30;87.00;;;;;;4923669;28;20032;-73
2022/02/05 04:10:08;;;;;;;16.33;6.00;;;3.20;87.10;;;;;;4919401;28;20134;-74
2022/02/05 04:18:02;;;;;;;16.70;5.47;;;3.30;87.50;;;;;;4921290;28;20107;-76
2022/02/05 04:20:28;;;;;;;13.55;5.68;;;3.30;87.50;;;;;;4922878;28;20039;-73
2022/02/05 04:22:55;;;;;;;17.27;5.15;;;3.20;87.40;;;;;;4923401;28;20300;-78
2022/02/05 04:25:21;;;;;;;18.35;5.20;;;3.30;87.50;;;;;;4922495;28;20153;-75
2022/02/05 04:27:46;;;;;;;14.95;5.53;;;3.30;87.50;;;;;;4936179;28;20043;-75
2022/02/05 04:30:13;;;;;;;18.25;5.15;;;3.20;87.50;;;;;;4923738;28;20470;-77
2022/02/05 04:32:39;;;;;;;12.35;4.93;;;3.20;87.50;;;;;;4919523;28;20063;-75
2022/02/05 04:35:05;;;;;;;14.20;5.20;;;3.20;87.70;;;;;;4924004;28;20491;-73
2022/02/05 04:37:32;;;;;;;18.88;5.13;;;3.20;87.70;;;;;;4933675;28;20043;-73
2022/02/05 04:42:47;;;;;;;15.43;4.90;;;3.20;87.80;;;;;;4920212;28;20068;-77
2022/02/05 05:13:19;;;;;;;14.43;5.80;;;3.20;88.30;;;;;;4920458;28;20047;-74
2022/02/05 05:21:08;;;;;;;18.77;5.95;;;3.10;88.40;;;;;;4926901;28;20043;-76
2022/02/05 05:23:34;;;;;;;19.50;6.65;;;3.10;88.50;;;;;;4923233;28;20486;-76
2022/02/05 05:26:00;;;;;;;19.02;5.53;;;3.10;88.60;;;;;;4922840;28;20085;-75
2022/02/05 05:28:25;;;;;;;18.73;6.10;;;3.10;88.60;;;;;;4917759;28;20056;-74
2022/02/05 05:30:51;;;;;;;15.93;6.15;;;3.10;88.70;;;;;;4920762;28;20057;-74
2022/02/05 05:33:16;;;;;;;16.27;5.97;;;3.00;88.70;;;;;;4921780;28;20510;-74
2022/02/05 05:35:42;;;;;;;18.67;5.68;;;3.00;88.70;;;;;;4922320;28;20377;-80
2022/02/05 05:38:08;;;;;;;18.90;5.93;;;3.00;88.80;;;;;;4922101;28;20039;-76
2022/02/05 05:40:36;;;;;;;19.73;5.82;;;2.90;88.80;;;;;;4921254;28;20048;-76
2022/02/05 05:43:05;;;;;;;24.95;6.85;;;3.00;88.90;;;;;;4923219;28;20195;-72
2022/02/05 05:48:16;;;;;;;16.75;5.70;;;2.90;88.90;;;;;;4919435;28;20119;-74
2022/02/05 05:53:15;;;;;;;16.95;5.90;;;2.90;88.90;;;;;;4920546;28;20053;-76
2022/02/05 05:55:48;;;;;;;15.00;5.70;;;2.80;89.00;;;;;;4921420;28;20044;-78
2022/02/05 05:58:15;;;;;;;17.95;6.20;;;2.80;89.00;;;;;;4918982;28;20035;-73
2022/02/05 06:00:42;;;;;;;16.58;5.95;;;2.80;89.10;;;;;;4922545;28;20039;-75
2022/02/05 06:03:08;;;;;;;19.77;6.78;;;2.80;89.20;;;;;;4918872;28;20073;-78
2022/02/05 06:05:34;;;;;;;12.27;5.32;;;2.80;89.10;;;;;;4921876;28;20051;-75
2022/02/05 06:07:59;;;;;;;17.58;5.63;;;2.70;89.10;;;;;;4923531;28;20420;-74
2022/02/05 06:10:25;;;;;;;18.45;5.40;;;2.70;89.30;;;;;;4920180;28;20035;-78
2022/02/05 06:12:51;;;;;;;16.50;5.25;;;2.70;89.50;;;;;;4926107;28;20032;-74
2022/02/05 06:15:17;;;;;;;16.80;6.05;;;2.70;89.60;;;;;;4920150;28;20517;-73
2022/02/05 06:17:43;;;;;;;17.13;5.25;;;2.80;89.80;;;;;;4953259;28;20119;-74
2022/02/05 06:20:09;;;;;;;13.98;5.50;;;2.80;89.80;;;;;;4924637;28;20428;-76
2022/02/05 06:22:37;;;;;;;16.95;5.75;;;2.80;89.80;;;;;;4914762;28;20052;-74
2022/02/05 06:25:03;;;;;;;20.02;5.43;;;2.80;89.70;;;;;;4916720;28;20055;-75
2022/02/05 06:27:29;;;;;;;16.15;5.43;;;2.80;89.60;;;;;;4933777;28;20047;-74
2022/02/05 06:29:54;;;;;;;18.60;5.70;;;2.80;89.60;;;;;;4912429;28;20102;-72
2022/02/05 06:32:20;;;;;;;17.67;5.22;;;2.80;89.40;;;;;;4922094;28;20050;-75
2022/02/05 06:34:46;;;;;;;13.57;4.97;;;2.80;89.50;;;;;;4927363;28;20044;-76
2022/02/05 06:37:12;;;;;;;16.98;5.55;;;2.80;89.50;;;;;;4915297;28;20125;-74
2022/02/05 06:39:38;;;;;;;17.05;5.70;;;2.70;89.50;;;;;;4917238;28;20031;-78
2022/02/05 06:42:04;;;;;;;15.90;4.72;;;2.70;89.50;;;;;;4916608;28;20032;-74
2022/02/05 06:44:30;;;;;;;17.60;5.28;;;2.70;89.60;;;;;;4912871;28;20122;-73
2022/02/05 06:46:55;;;;;;;15.13;6.28;;;2.80;89.70;;;;;;4917623;28;20493;-73
2022/02/05 06:49:25;;;;;;;14.20;6.47;;;2.80;89.60;;;;;;4916036;28;20048;-74
2022/02/05 06:51:51;;;;;;;15.82;5.90;;;2.70;89.50;;;;;;4915568;28;20502;-74
2022/02/05 06:54:17;;;;;;;14.82;5.97;;;2.60;89.40;;;;;;4917345;28;20059;-76
2022/02/05 06:56:43;;;;;;;16.05;6.05;;;2.60;89.50;;;;;;4923053;28;20139;-72
2022/02/05 06:59:08;;;;;;;16.45;6.60;;;2.60;89.70;;;;;;4923911;28;20050;-75
2022/02/05 07:01:34;;;;;;;17.63;7.85;;;2.60;89.90;;;;;;4950296;28;20164;-76
2022/02/05 07:04:00;;;;;;;16.05;6.60;;;2.60;89.80;;;;;;4921596;28;20681;-75
2022/02/05 07:06:25;;;;;;;16.13;5.93;;;2.60;89.80;;;;;;4928350;28;20047;-74
2022/02/05 07:08:51;;;;;;;16.10;5.88;;;2.50;89.70;;;;;;4918560;28;20044;-74
2022/02/05 07:11:17;;;;;;;15.20;5.95;;;2.50;89.80;;;;;;4935453;28;20572;-74
2022/02/05 07:13:43;;;;;;;17.20;6.15;;;2.50;89.80;;;;;;4934378;28;20099;-75
2022/02/05 07:16:20;;;;;;;15.32;6.10;;;2.50;89.90;;;;;;4934708;28;20475;-75
2022/02/05 07:21:19;;;;;;;17.98;6.20;;;2.50;89.90;;;;;;4920876;28;20522;-72
2022/02/05 07:29:16;;;;;;;17.50;6.70;;;2.40;89.90;;;;;;4929807;28;20079;-73
2022/02/05 07:31:54;;;;;;;20.00;6.97;;;2.50;90.10;;;;;;4918976;28;20040;-75
2022/02/05 07:34:24;;;;;;;16.67;6.60;;;2.50;90.20;;;;;;4918157;28;20682;-74
2022/02/05 07:36:50;;;;;;;18.98;6.97;;;2.60;90.30;;;;;;4943313;28;20565;-72
2022/02/05 07:39:16;;;;;;;16.70;7.40;;;2.60;90.30;;;;;;4917072;28;20035;-73
2022/02/05 07:41:43;;;;;;;16.10;6.32;;;2.60;90.10;;;;;;4911001;28;20495;-74
2022/02/05 07:44:13;;;;;;;19.35;7.50;;;2.60;90.10;;;;;;4926777;28;20039;-74
2022/02/05 07:46:40;;;;;;;13.85;6.43;;;2.60;90.00;;;;;;4923091;28;20035;-74
2022/02/05 07:49:06;;;;;;;17.20;6.47;;;2.70;90.00;;;;;;4920011;28;20225;-77
2022/02/05 07:51:32;;;;;;;15.80;6.78;;;2.70;90.00;;;;;;4953070;28;20079;-72
2022/02/05 07:53:57;;;;;;;16.58;5.93;;;2.70;89.90;;;;;;4912535;28;20043;-76
2022/02/05 07:56:23;;;;;;;21.95;6.40;;;2.70;89.80;;;;;;4922176;28;20446;-76
2022/02/05 07:58:49;;;;;;;15.23;6.50;;;2.80;89.90;;;;;;4953932;28;20405;-75
2022/02/05 08:01:15;;;;;;;18.00;6.55;;;2.80;89.80;;;;;;4929906;28;20589;-74
2022/02/05 08:03:41;;;;;;;15.27;6.82;;;2.80;89.80;;;;;;4914810;28;20036;-77
2022/02/05 08:06:14;;;;;;;19.08;7.32;;;2.90;89.70;;;;;;4919643;28;20032;-74
2022/02/05 08:08:40;;;;;;;19.45;6.68;;;2.90;89.70;;;;;;4927708;28;20254;-76
2022/02/05 08:11:10;;;;;;;16.98;6.53;;;2.90;89.70;;;;;;4925084;28;20096;-78
2022/02/05 08:13:36;;;;;;;18.27;6.45;;;3.00;89.60;;;;;;4923535;28;20047;-76
2022/02/05 08:16:29;;;;;;;15.38;6.63;;;3.00;89.60;;;;;;4917099;28;20108;-74
2022/02/05 08:18:55;;;;;;;16.40;6.40;;;3.10;89.60;;;;;;4919477;28;20044;-75
2022/02/05 08:21:21;;;;;;;16.45;6.40;;;3.10;89.50;;;;;;4917901;28;20036;-75
2022/02/05 08:23:47;;;;;;;15.00;6.45;;;3.20;89.40;;;;;;4912625;28;20155;-75
2022/02/05 08:26:12;;;;;;;21.08;7.30;;;3.30;89.30;;;;;;4913715;28;20121;-75
2022/02/05 08:28:41;;;;;;;29.27;14.88;;;3.20;89.10;;;;;;4918365;28;20502;-76
2022/02/05 08:31:08;;;;;;;20.40;12.82;;;3.40;89.10;;;;;;4919214;28;20123;-76
2022/02/05 08:33:36;;;;;;;25.10;15.65;;;3.50;88.70;;;;;;4918919;28;20043;-78
2022/02/05 08:36:03;;;;;;;17.67;6.18;;;3.50;88.60;;;;;;4922174;28;20040;-69
2022/02/05 08:38:28;;;;;;;22.27;11.95;;;3.60;88.40;;;;;;4916081;28;20407;-69
2022/02/05 08:40:55;;;;;;;24.48;14.65;;;3.60;88.30;;;;;;4915117;28;20036;-69
2022/02/05 08:43:21;;;;;;;18.90;8.30;;;3.70;88.20;;;;;;4924396;28;20428;-70
2022/02/05 08:45:47;;;;;;;12.50;6.55;;;3.80;88.10;;;;;;4926343;28;20043;-68
2022/02/05 08:48:13;;;;;;;17.80;8.75;;;3.90;87.90;;;;;;4922107;28;20159;-67
2022/02/05 08:50:41;;;;;;;17.23;6.03;;;4.00;87.60;;;;;;4949777;28;20110;-70
2022/02/05 08:53:07;;;;;;;14.95;5.82;;;4.10;87.20;;;;;;4914751;28;20495;-68
2022/02/05 08:55:33;;;;;;;14.20;5.90;;;4.20;86.90;;;;;;4915001;28;20361;-68
2022/02/05 08:58:01;;;;;;;11.68;5.50;;;4.40;86.30;;;;;;4918260;28;20780;-72
2022/02/05 09:00:27;;;;;;;12.55;5.40;;;4.50;85.70;;;;;;4910470;28;20048;-74
2022/02/05 09:03:04;;;;;;;13.80;5.40;;;4.60;85.50;;;;;;4911013;29;20094;-69
2022/02/05 09:07:57;;;;;;;16.80;6.53;;;4.90;84.40;;;;;;4915447;28;20412;-72
2022/02/05 09:15:40;;;;;;;16.77;5.72;;;5.00;83.30;;;;;;4919634;28;20062;-70
2022/02/05 09:18:06;;;;;;;13.20;5.40;;;5.10;82.70;;;;;;4924648;28;20040;-69
2022/02/05 09:20:32;;;;;;;16.83;5.10;;;5.10;82.80;;;;;;4921106;28;20047;-69
2022/02/05 09:22:58;;;;;;;12.45;4.97;;;5.20;82.50;;;;;;4923326;28;20086;-69
2022/02/05 09:25:26;;;;;;;15.50;5.63;;;5.40;82.30;;;;;;4919830;28;20238;-68
2022/02/05 09:27:51;;;;;;;14.35;4.93;;;5.40;82.30;;;;;;4919407;28;20046;-72
2022/02/05 09:30:28;;;;;;;13.48;5.38;;;5.60;81.60;;;;;;4924587;28;20399;-72
2022/02/05 09:32:53;;;;;;;17.08;5.03;;;5.80;81.00;;;;;;4921475;28;20120;-71
2022/02/05 09:35:19;;;;;;;12.52;4.60;;;5.80;80.40;;;;;;4923912;28;20047;-70
2022/02/05 09:37:45;;;;;;;14.60;5.20;;;5.70;80.80;;;;;;4920653;28;20157;-69
2022/02/05 09:40:11;;;;;;;17.38;4.75;;;5.80;80.70;;;;;;4922123;28;20024;-69
2022/02/05 09:42:46;;;;;;;16.23;4.78;;;5.90;80.70;;;;;;4921533;28;20120;-68
2022/02/05 09:45:13;;;;;;;11.05;4.00;;;6.10;79.80;;;;;;4921781;28;20058;-69
2022/02/05 09:47:38;;;;;;;12.88;4.22;;;6.10;79.30;;;;;;4922021;28;20038;-71
2022/02/05 09:50:07;;;;;;;13.15;3.97;;;6.20;79.50;;;;;;4920055;28;20036;-70
2022/02/05 09:52:32;;;;;;;13.70;4.22;;;6.30;79.50;;;;;;4924504;28;20039;-69
2022/02/05 09:54:58;;;;;;;11.32;4.15;;;6.60;78.60;;;;;;4919285;28;20469;-70
2022/02/05 09:57:24;;;;;;;12.40;3.92;;;6.60;77.50;;;;;;4927962;28;20031;-70
2022/02/05 10:00:00;;;;;;;15.90;4.72;;;6.60;77.90;;;;;;4920759;28;20043;-69
2022/02/05 10:02:36;;;;;;;14.10;4.53;;;6.80;77.50;;;;;;4913557;28;20031;-71
2022/02/05 10:05:07;;;;;;;12.88;3.95;;;6.70;77.00;;;;;;4917483;28;20493;-68
2022/02/05 10:07:36;;;;;;;13.98;4.28;;;6.70;76.90;;;;;;4922209;28;20039;-71
2022/02/05 10:10:06;;;;;;;8.65;4.00;;;6.70;77.30;;;;;;4919738;28;20087;-69
2022/02/05 10:12:32;;;;;;;17.27;4.13;;;6.70;77.00;;;;;;4921723;28;20494;-69
2022/02/05 10:15:01;;;;;;;11.98;4.18;;;6.80;76.90;;;;;;4920625;28;20051;-70
2022/02/05 10:17:43;;;;;;;12.43;4.25;;;7.00;76.90;;;;;;4918310;28;20051;-69
2022/02/05 10:20:11;;;;;;;13.35;4.00;;;6.90;76.70;;;;;;4935505;28;20040;-69
2022/02/05 10:22:43;;;;;;;15.00;4.53;;;7.00;77.00;;;;;;4918510;28;20040;-70
2022/02/05 10:25:16;;;;;;;8.15;3.20;;;7.10;76.90;;;;;;4916857;28;20138;-70
2022/02/05 10:27:43;;;;;;;11.85;4.07;;;7.00;76.40;;;;;;4912792;28;20135;-68
2022/02/05 10:30:22;;;;;;;13.95;4.95;;;7.20;76.20;;;;;;4916567;28;20032;-72
2022/02/05 10:33:11;;;;;;;19.30;4.28;;;7.10;75.90;;;;;;4914480;28;20495;-69
2022/02/05 10:35:56;;;;;;;11.93;3.97;;;7.20;75.90;;;;;;4908729;28;20063;-71
2022/02/05 10:44:14;;;;;;;10.68;4.53;;;7.60;75.60;;;;;;4921648;28;20028;-69
2022/02/05 10:46:43;;;;;;;14.20;4.35;;;7.90;74.40;;;;;;4928278;28;20036;-71
2022/02/05 10:49:32;;;;;;;13.45;4.13;;;7.80;73.70;;;;;;4927113;28;20043;-72
2022/02/05 10:51:59;;;;;;;14.05;4.00;;;7.70;74.00;;;;;;4920288;28;20471;-68
2022/02/05 10:54:51;;;;;;;15.48;5.22;;;7.90;73.70;;;;;;4920121;28;20043;-68
2022/02/05 10:57:24;;;;;;;14.23;4.15;;;7.90;72.80;;;;;;4919775;28;20127;-69
2022/02/05 11:05:36;;;;;;;19.48;4.32;;;8.00;73.60;;;;;;4922895;28;20106;-69
2022/02/05 11:08:03;;;;;;;11.82;3.30;;;8.30;72.80;;;;;;4920027;28;20102;-71
2022/02/05 11:21:18;;;;;;;14.30;3.58;;;8.50;70.10;;;;;;4925626;28;20099;-69
2022/02/05 11:23:46;;;;;;;16.25;4.28;;;8.40;70.00;;;;;;4922026;28;20546;-70
2022/02/05 11:26:13;;;;;;;13.65;3.65;;;8.40;69.60;;;;;;4923775;28;20047;-70
2022/02/05 11:28:45;;;;;;;10.77;3.58;;;8.30;70.40;;;;;;4903059;28;20078;-70
2022/02/05 11:31:18;;;;;;;16.73;4.03;;;8.20;70.30;;;;;;4918213;28;20127;-68
2022/02/05 11:33:44;;;;;;;12.00;3.90;;;8.20;69.30;;;;;;4922383;28;20459;-68
2022/02/05 11:38:57;;;;;;;11.68;3.20;;;8.50;70.20;;;;;;4921241;28;20400;-68
2022/02/05 11:41:26;;;;;;;12.48;3.85;;;8.40;69.90;;;;;;4911198;28;20052;-69
2022/02/05 11:44:22;;;;;;;12.48;3.83;;;8.50;68.70;;;;;;4910549;28;20252;-68
2022/02/05 11:47:04;;;;;;;16.77;3.92;;;8.60;68.30;;;;;;4926343;28;20115;-70
2022/02/05 11:49:51;;;;;;;11.68;3.10;;;8.60;69.00;;;;;;4924298;28;20424;-70
2022/02/05 11:52:35;;;;;;;11.75;3.65;;;8.80;69.10;;;;;;4919843;28;20341;-69
2022/02/05 11:55:09;;;;;;;10.68;3.35;;;9.00;68.10;;;;;;4915136;28;20062;-71
2022/02/05 11:57:45;;;;;;;13.40;3.30;;;9.00;67.30;;;;;;4917535;28;20074;-68
2022/02/05 12:00:19;;;;;;;13.43;3.80;;;9.10;67.50;;;;;;4921086;28;20124;-68
2022/02/05 12:02:56;;;;;;;12.02;3.97;;;8.90;67.40;;;;;;4923311;28;20092;-69
2022/02/05 12:05:26;;;;;;;13.43;3.58;;;8.90;68.90;;;;;;4920732;28;20040;-68
2022/02/05 12:08:04;;;;;;;17.00;3.65;;;9.10;68.50;;;;;;4934960;28;20039;-69
2022/02/05 12:10:44;;;;;;;19.77;3.70;;;9.10;68.10;;;;;;4931231;28;20044;-68
2022/02/05 12:13:39;;;;;;;16.27;3.60;;;9.50;67.70;;;;;;4935263;28;20054;-68
2022/02/05 12:16:11;;;;;;;;;;;9.50;66.50;;;;;;4935313;28;20036;-68
2022/02/05 12:19:12;;;;;;;11.88;3.22;;;9.20;67.00;;;;;;4949649;28;19927;-67
2022/02/05 12:21:55;;;;;;;11.70;3.42;;;9.00;68.00;;;;;;4919853;28;20476;-68
2022/02/05 12:24:36;;;;;;;12.82;4.68;;;8.80;69.10;;;;;;4934405;28;20090;-69
2022/02/05 12:27:22;;;;;;;16.77;3.95;;;8.90;69.50;;;;;;4931669;28;20115;-67
2022/02/05 12:29:48;;;;;;;13.93;3.58;;;9.00;68.80;;;;;;4919835;28;20047;-68
2022/02/05 12:32:13;;;;;;;10.13;3.80;;;9.20;69.00;;;;;;4921535;28;20467;-68
2022/02/05 12:34:39;;;;;;;11.60;3.90;;;9.20;68.80;;;;;;4921324;28;20204;-69
2022/02/05 12:37:05;;;;;;;18.58;4.13;;;9.30;68.50;;;;;;4920848;28;20035;-68
2022/02/05 12:39:33;;;;;;;13.85;3.97;;;9.40;69.50;;;;;;4917098;28;20393;-69
2022/02/05 12:42:00;;;;;;;15.82;3.75;;;9.40;69.40;;;;;;4922333;28;20051;-68
2022/02/05 12:44:29;;;;;;;12.77;3.58;;;9.30;68.70;;;;;;4919916;28;20058;-69
2022/02/05 12:46:58;;;;;;;12.65;3.83;;;9.50;69.30;;;;;;4913329;28;20036;-69
2022/02/05 12:51:52;;;;;;;18.98;4.00;;;9.80;68.60;;;;;;4921453;28;20036;-69
2022/02/05 12:54:24;;;;;;;14.70;3.72;;;9.80;68.60;;;;;;4907358;28;20054;-72
2022/02/05 12:56:51;;;;;;;15.00;3.65;;;9.70;68.70;;;;;;4909351;28;20040;-68
2022/02/05 12:59:25;;;;;;;13.25;3.47;;;9.70;68.70;;;;;;4906964;28;20035;-70
2022/02/05 13:01:52;;;;;;;16.00;3.55;;;9.60;68.70;;;;;;4910604;28;20150;-70
2022/02/05 13:04:23;;;;;;;13.75;4.10;;;9.60;69.20;;;;;;4900707;28;20078;-68
2022/02/05 13:07:22;;;;;;;15.02;4.13;;;9.50;70.00;;;;;;4910854;28;20034;-71
2022/02/05 13:09:58;;;;;;;15.68;3.95;;;9.40;69.50;;;;;;4910925;28;20130;-68
2022/02/05 13:12:33;;;;;;;14.88;3.35;;;9.30;70.00;;;;;;4912668;28;20107;-69
2022/02/05 13:15:07;;;;;;;20.23;4.82;;;9.50;69.70;;;;;;4912009;28;20123;-70
2022/02/05 13:34:38;;;;;;;15.90;4.20;;;9.80;68.30;;;;;;4920703;28;20059;-71
2022/02/05 13:37:19;;;;;;;15.60;3.90;;;9.90;67.60;;;;;;4932196;28;20359;-68
2022/02/05 13:42:19;;;;;;;12.68;3.30;;;10.00;67.10;;;;;;4909870;28;20050;-69
2022/02/05 13:45:00;;;;;;;14.88;3.67;;;10.00;67.20;;;;;;4907981;28;20035;-68
2022/02/05 13:47:34;;;;;;;22.83;3.63;;;9.90;67.60;;;;;;4910681;28;20036;-70
2022/02/05 13:50:10;;;;;;;18.00;4.28;;;9.80;68.10;;;;;;4908801;28;20056;-70
2022/02/05 13:52:38;;;;;;;17.75;3.30;;;10.00;67.50;;;;;;4912027;28;20039;-69
2022/02/05 13:55:12;;;;;;;13.02;3.67;;;10.00;67.70;;;;;;4936262;28;20482;-68
2022/02/05 13:57:55;;;;;;;13.27;3.50;;;10.20;67.60;;;;;;4912372;28;20194;-68
2022/02/05 14:00:21;;;;;;;11.60;3.08;;;10.20;67.00;;;;;;4909744;28;20040;-72
2022/02/05 14:03:00;;;;;;;13.25;4.43;;;10.20;66.70;;;;;;4914279;28;20138;-67
2022/02/05 14:05:26;;;;;;;10.27;3.42;;;10.10;66.00;;;;;;4908941;28;20048;-69
2022/02/05 14:07:52;;;;;;;9.02;2.88;;;10.20;66.30;;;;;;4910478;28;20118;-68
2022/02/05 14:10:20;;;;;;;10.57;2.60;;;10.20;65.30;;;;;;4913654;28;20032;-69
2022/02/05 14:12:52;;;;;;;11.80;2.72;;;10.30;64.50;;;;;;4911587;28;20472;-68
2022/02/05 14:15:18;;;;;;;8.00;2.65;;;10.30;64.30;;;;;;4914368;29;20558;-69
2022/02/05 14:17:46;;;;;;;12.85;2.80;;;10.20;63.80;;;;;;4915701;28;20032;-68
2022/02/05 14:20:13;;;;;;;12.50;3.20;;;10.20;64.00;;;;;;4929558;28;20038;-69
2022/02/05 14:22:45;;;;;;;10.57;2.78;;;10.00;63.60;;;;;;4917050;28;20034;-72
2022/02/05 14:25:22;;;;;;;11.05;2.75;;;10.20;63.30;;;;;;4917992;28;20040;-67
2022/02/05 14:28:13;;;;;;;7.82;2.45;;;10.20;63.60;;;;;;4914360;28;20122;-69
2022/02/05 14:30:43;;;;;;;13.25;2.80;;;10.10;64.10;;;;;;4909654;28;20044;-70
2022/02/05 14:33:09;;;;;;;12.00;2.97;;;10.10;64.20;;;;;;4915596;28;20039;-69
2022/02/05 14:40:52;;;;;;;11.45;3.20;;;9.90;65.50;;;;;;4910726;28;20050;-71
2022/02/05 14:43:19;;;;;;;13.23;3.05;;;9.80;65.80;;;;;;4918615;28;20443;-68
2022/02/05 14:45:45;;;;;;;9.65;3.03;;;9.80;65.70;;;;;;4921199;28;20048;-69
2022/02/05 14:48:11;;;;;;;11.95;3.08;;;9.80;66.10;;;;;;4919399;28;20036;-71
2022/02/05 14:50:37;;;;;;;11.27;2.83;;;9.70;66.70;;;;;;4920109;28;20468;-68
2022/02/05 14:53:03;;;;;;;10.75;3.03;;;9.60;66.90;;;;;;4918578;28;20035;-71
2022/02/05 14:55:29;;;;;;;11.18;3.25;;;9.70;66.80;;;;;;4920431;28;20554;-68
2022/02/05 14:57:55;;;;;;;11.85;3.40;;;9.70;66.20;;;;;;4919973;28;20049;-70
2022/02/05 15:00:20;;;;;;;14.52;4.43;;;9.70;66.90;;;;;;4919748;28;20054;-71
2022/02/05 15:02:48;;;;;;;10.88;3.22;;;9.70;66.90;;;;;;4948835;28;20055;-71
2022/02/05 15:05:14;;;;;;;10.35;3.25;;;9.70;67.30;;;;;;4920430;28;20065;-68
2022/02/05 15:07:41;;;;;;;14.10;3.47;;;9.60;67.30;;;;;;4923115;28;20488;-69
2022/02/05 15:10:09;;;;;;;14.15;3.03;;;9.70;67.20;;;;;;4924967;28;20180;-67
2022/02/05 15:12:36;;;;;;;9.40;2.55;;;9.60;67.50;;;;;;4921220;28;20122;-67
2022/02/05 15:15:09;;;;;;;8.32;2.72;;;9.60;68.00;;;;;;4917384;28;20412;-68
2022/02/05 15:17:40;;;;;;;16.35;3.83;;;9.60;68.00;;;;;;4917852;28;20427;-70
2022/02/05 15:20:07;;;;;;;13.30;3.20;;;9.60;68.00;;;;;;4913041;28;20207;-70
2022/02/05 15:22:33;;;;;;;9.98;2.67;;;9.60;68.60;;;;;;4920494;28;20046;-70
2022/02/05 15:24:58;;;;;;;11.02;3.10;;;9.60;68.30;;;;;;4918177;28;20043;-69
2022/02/05 15:27:25;;;;;;;10.60;2.80;;;9.60;68.20;;;;;;4920118;28;20054;-71
2022/02/05 15:29:50;;;;;;;13.15;2.95;;;9.60;68.50;;;;;;4931808;28;20130;-72
2022/02/05 15:32:16;;;;;;;16.63;3.70;;;9.60;68.50;;;;;;4913638;28;20067;-69
2022/02/05 15:34:43;;;;;;;12.02;3.08;;;9.60;68.60;;;;;;4916261;28;20389;-70
2022/02/05 15:37:16;;;;;;;12.20;3.53;;;9.60;69.30;;;;;;4921509;28;20036;-69
2022/02/05 15:39:55;;;;;;;12.50;3.13;;;9.60;69.40;;;;;;4916232;28;20087;-72
2022/02/05 15:45:05;;;;;;;11.98;3.33;;;9.50;70.30;;;;;;4918504;28;20107;-68
2022/02/05 15:47:31;;;;;;;18.10;3.25;;;9.50;70.50;;;;;;4951385;28;20040;-72
2022/02/05 15:49:57;;;;;;;12.43;3.47;;;9.50;70.40;;;;;;4920540;28;20070;-70
2022/02/05 15:52:22;;;;;;;11.15;3.30;;;9.40;70.60;;;;;;4923259;28;20039;-70
2022/02/05 15:54:49;;;;;;;11.25;3.63;;;9.40;70.90;;;;;;4921878;28;20071;-68
2022/02/05 16:02:17;;;;;;;11.63;2.88;;;9.40;71.40;;;;;;4921312;28;20487;-71
2022/02/05 16:04:43;;;;;;;15.38;3.30;;;9.40;71.50;;;;;;4922396;28;20686;-72
2022/02/05 16:07:08;;;;;;;12.95;2.70;;;9.30;71.70;;;;;;4921154;28;20032;-69
2022/02/05 16:09:34;;;;;;;18.98;3.97;;;9.30;71.90;;;;;;4924716;28;20054;-72
2022/02/05 16:12:00;;;;;;;16.73;4.30;;;9.30;72.20;;;;;;4923796;28;20095;-68
2022/02/05 16:14:26;;;;;;;15.82;3.70;;;9.30;72.20;;;;;;4921692;28;20028;-72
2022/02/05 16:16:52;;;;;;;16.98;3.83;;;9.30;72.30;;;;;;4935579;28;20040;-69
2022/02/05 16:19:17;;;;;;;19.40;4.88;;;9.20;72.70;;;;;;4925030;28;20036;-71